Time;durP1;ratioP1;P1;durP2;ratioP2;P2;SDS_P1;SDS_P2;PMS_P1;PMS_P2;Temp;Humidity;BMP_temperature;BMP_pressure;BME280_temperature;BME280_humidity;BME280_pressure;Samples;Min_cycle;Max_cycle;Signal;HPM_P1;HPM_P2
2023/01/05 00:01:41;;;;;;;12.98;1.75;;;9.70;99.90;;;;;;5037277;28;20186;-90
2023/01/05 00:04:07;;;;;;;7.13;1.90;;;9.80;99.90;;;;;;5035865;28;20178;-90
2023/01/05 00:06:34;;;;;;;7.68;1.98;;;9.80;99.90;;;;;;5036921;28;20226;-91
2023/01/05 00:09:00;;;;;;;9.87;2.00;;;10.00;99.90;;;;;;5037065;28;20175;-89
2023/01/05 00:22:52;;;;;;;11.82;2.22;;;10.10;99.90;;;;;;5038475;28;20565;-91
2023/01/05 00:25:22;;;;;;;10.70;2.27;;;10.10;99.90;;;;;;5036797;28;20178;-91
2023/01/05 00:27:50;;;;;;;15.07;3.15;;;10.10;99.90;;;;;;5037872;28;20174;-91
2023/01/05 00:30:25;;;;;;;11.90;2.33;;;10.20;99.90;;;;;;5038182;28;20645;-90
2023/01/05 00:32:51;;;;;;;9.98;1.83;;;10.30;99.90;;;;;;5036495;28;20163;-91
2023/01/05 00:35:17;;;;;;;11.13;1.80;;;10.20;99.90;;;;;;5020922;28;20210;-90
2023/01/05 00:37:44;;;;;;;12.77;2.25;;;10.20;99.90;;;;;;5016996;28;20238;-90
2023/01/05 00:40:34;;;;;;;14.20;2.55;;;10.10;99.90;;;;;;5016777;28;20185;-93
2023/01/05 00:42:59;;;;;;;7.68;2.00;;;10.20;99.90;;;;;;5017835;28;20160;-91
2023/01/05 00:45:25;;;;;;;16.27;2.63;;;10.10;99.90;;;;;;5015382;28;20194;-90
2023/01/05 00:47:52;;;;;;;11.43;2.40;;;10.20;99.90;;;;;;5015876;28;20692;-90
2023/01/05 00:50:19;;;;;;;9.88;2.08;;;10.20;99.90;;;;;;5015950;28;20222;-90
2023/01/05 00:52:45;;;;;;;8.40;1.92;;;10.20;99.90;;;;;;5016621;28;20179;-88
2023/01/05 00:55:12;;;;;;;14.05;2.28;;;10.20;99.90;;;;;;5016468;28;20696;-90
2023/01/05 00:57:38;;;;;;;13.27;2.17;;;10.10;99.90;;;;;;5016571;28;20172;-94
2023/01/05 01:00:08;;;;;;;12.13;1.90;;;10.20;99.90;;;;;;5017693;28;20178;-90
2023/01/05 01:02:34;;;;;;;14.68;2.90;;;10.10;99.90;;;;;;5016632;28;20563;-91
2023/01/05 01:04:59;;;;;;;12.60;2.33;;;10.00;99.90;;;;;;5029272;28;20182;-93
2023/01/05 01:07:25;;;;;;;12.32;2.60;;;10.10;99.90;;;;;;5036366;28;20237;-90
2023/01/05 01:09:51;;;;;;;11.23;2.40;;;10.10;99.90;;;;;;5036466;28;20297;-91
2023/01/05 01:12:18;;;;;;;8.27;1.98;;;10.00;99.90;;;;;;5037432;28;20181;-89
2023/01/05 01:14:47;;;;;;;14.68;2.85;;;10.00;99.90;;;;;;5036080;28;20174;-93
2023/01/05 01:17:13;;;;;;;10.50;2.25;;;10.10;99.90;;;;;;5037670;28;20179;-91
2023/01/05 01:19:39;;;;;;;11.23;2.33;;;10.20;99.90;;;;;;5035946;28;20261;-90
2023/01/05 01:22:13;;;;;;;13.55;2.60;;;10.20;99.90;;;;;;5036606;28;20226;-94
2023/01/05 01:24:41;;;;;;;10.32;2.35;;;10.20;99.90;;;;;;5036156;28;20182;-93
2023/01/05 01:27:07;;;;;;;10.52;2.10;;;10.20;99.90;;;;;;5035751;28;20237;-94
2023/01/05 01:29:33;;;;;;;9.80;2.13;;;10.30;99.90;;;;;;5036745;28;20174;-92
2023/01/05 01:32:21;;;;;;;17.35;2.80;;;10.10;99.90;;;;;;5037090;28;20257;-94
2023/01/05 01:34:47;;;;;;;15.50;2.40;;;10.10;99.90;;;;;;5035675;28;20262;-92
2023/01/05 01:37:14;;;;;;;10.95;2.30;;;10.00;99.90;;;;;;5035918;28;20186;-93
2023/01/05 01:39:39;;;;;;;12.75;2.58;;;10.00;99.90;;;;;;5035966;28;20602;-94
2023/01/05 01:42:09;;;;;;;10.90;2.17;;;9.90;99.90;;;;;;5036401;28;20174;-92
2023/01/05 01:45:14;;;;;;;13.82;2.22;;;9.90;99.90;;;;;;5036005;28;20513;-92
2023/01/05 01:47:46;;;;;;;9.63;2.00;;;10.00;99.90;;;;;;5036170;28;20679;-94
2023/01/05 01:50:12;;;;;;;11.03;2.10;;;10.10;99.90;;;;;;5036623;28;20212;-95
2023/01/05 01:52:39;;;;;;;10.73;2.45;;;10.10;99.90;;;;;;5036059;28;20178;-91
2023/01/05 01:55:05;;;;;;;15.70;2.92;;;10.10;99.90;;;;;;5037339;28;20186;-95
2023/01/05 01:57:32;;;;;;;14.27;2.05;;;10.10;99.90;;;;;;5035489;28;20535;-88
2023/01/05 02:00:00;;;;;;;14.23;2.30;;;10.10;99.90;;;;;;5036240;28;20178;-92
2023/01/05 02:02:27;;;;;;;13.80;2.78;;;10.20;99.90;;;;;;5038386;28;20178;-94
2023/01/05 02:04:54;;;;;;;13.82;3.03;;;10.20;99.90;;;;;;5035790;28;20194;-91
2023/01/05 02:07:24;;;;;;;13.27;2.38;;;10.20;99.90;;;;;;5035697;28;20234;-92
2023/01/05 02:09:49;;;;;;;13.27;2.72;;;10.40;99.90;;;;;;5035569;28;20202;-92
2023/01/05 02:12:43;;;;;;;10.70;2.80;;;10.30;99.90;;;;;;5035402;28;20187;-95
2023/01/05 02:15:53;;;;;;;13.50;2.13;;;10.20;99.90;;;;;;5036184;28;20167;-96
2023/01/05 02:18:32;;;;;;;16.20;2.72;;;10.20;99.90;;;;;;5014727;28;20541;-92
2023/01/05 02:21:18;;;;;;;19.20;2.80;;;10.10;99.90;;;;;;4999719;28;20598;-93
2023/01/05 02:24:09;;;;;;;14.15;2.30;;;10.00;99.90;;;;;;5024831;28;20640;-91
2023/01/05 02:27:09;;;;;;;17.63;3.10;;;10.00;99.90;;;;;;5462865;22;20771;-90
2023/01/05 02:29:50;;;;;;;12.23;2.58;;;9.90;99.90;;;;;;5033577;28;20185;-89
2023/01/05 02:32:30;;;;;;;10.65;2.75;;;9.90;99.90;;;;;;5033575;28;20584;-90
2023/01/05 02:35:07;;;;;;;10.30;2.10;;;9.90;99.90;;;;;;5033538;28;20171;-90
2023/01/05 02:38:22;;;;;;;10.80;2.20;;;9.90;99.90;;;;;;5033485;28;20198;-91
2023/01/05 02:40:53;;;;;;;12.18;2.38;;;9.90;99.90;;;;;;5024600;28;20198;-91
2023/01/05 02:43:20;;;;;;;10.18;2.20;;;10.00;99.90;;;;;;5032846;28;20256;-90
2023/01/05 02:45:47;;;;;;;13.40;2.50;;;10.00;99.90;;;;;;5032541;28;20241;-90
2023/01/05 02:48:13;;;;;;;9.55;2.15;;;10.00;99.90;;;;;;5032737;28;20182;-90
2023/01/05 02:51:03;;;;;;;8.45;2.00;;;10.10;99.90;;;;;;5034320;28;20353;-92
2023/01/05 02:53:44;;;;;;;14.02;2.03;;;10.10;99.90;;;;;;5032434;28;20186;-89
2023/01/05 02:56:48;;;;;;;16.08;2.08;;;10.10;99.90;;;;;;5033317;28;20204;-89
2023/01/05 02:59:25;;;;;;;11.13;2.10;;;10.20;99.90;;;;;;5027677;28;20506;-90
2023/01/05 03:02:26;;;;;;;10.63;2.72;;;10.20;99.90;;;;;;5032203;28;20174;-89
2023/01/05 03:05:04;;;;;;;8.50;1.85;;;10.10;99.90;;;;;;5020381;28;20182;-89
2023/01/05 03:07:35;;;;;;;9.10;1.92;;;10.20;99.90;;;;;;5031556;28;20682;-89
2023/01/05 03:13:39;;;;;;;7.30;2.15;;;10.20;99.90;;;;;;5031786;28;20255;-89
2023/01/05 03:15:38;;;;;;;10.18;1.75;;;10.20;99.90;;;;;;5033808;28;20228;-90
2023/01/05 03:18:08;;;;;;;8.50;1.65;;;10.00;99.90;;;;;;5032110;28;20287;-90
2023/01/05 03:20:36;;;;;;;10.18;2.15;;;10.10;99.90;;;;;;5033230;28;20167;-90
2023/01/05 03:37:57;;;;;;;6.05;1.58;;;10.10;99.90;;;;;;5032895;28;20205;-89
2023/01/05 03:40:30;;;;;;;7.88;1.90;;;10.10;99.90;;;;;;5031701;28;20197;-89
2023/01/05 03:42:56;;;;;;;7.22;1.67;;;10.20;99.90;;;;;;5031728;28;20204;-90
2023/01/05 03:45:25;;;;;;;7.00;1.50;;;10.20;99.90;;;;;;5031902;28;20171;-91
2023/01/05 03:47:51;;;;;;;5.47;1.17;;;10.20;99.90;;;;;;5031962;28;20230;-89
2023/01/05 03:50:16;;;;;;;9.38;1.77;;;10.10;99.90;;;;;;5031906;28;20202;-90
2023/01/05 03:52:42;;;;;;;8.05;1.73;;;10.00;99.90;;;;;;5031970;28;20229;-88
2023/01/05 03:55:09;;;;;;;10.98;1.73;;;10.00;99.90;;;;;;5031611;28;20245;-91
2023/01/05 03:57:34;;;;;;;11.82;1.90;;;10.00;99.90;;;;;;5031437;28;20208;-90
2023/01/05 04:00:00;;;;;;;8.13;1.50;;;9.90;99.90;;;;;;5031658;28;20253;-91
2023/01/05 04:02:26;;;;;;;9.38;1.83;;;10.00;99.90;;;;;;5031609;28;20175;-89
2023/01/05 04:04:51;;;;;;;13.63;1.98;;;9.90;99.90;;;;;;5032750;28;20167;-91
2023/01/05 04:07:17;;;;;;;10.55;2.28;;;9.90;99.90;;;;;;5032138;28;20203;-89
2023/01/05 04:09:43;;;;;;;10.43;1.98;;;9.90;99.90;;;;;;5031482;28;20199;-90
2023/01/05 04:12:08;;;;;;;9.25;1.88;;;9.90;99.90;;;;;;5032068;28;20159;-90
2023/01/05 04:14:34;;;;;;;8.30;1.60;;;9.90;99.90;;;;;;5031351;28;20600;-90
2023/01/05 04:17:00;;;;;;;6.15;2.00;;;9.90;99.90;;;;;;5032422;28;20670;-89
2023/01/05 04:19:25;;;;;;;9.27;1.52;;;9.90;99.90;;;;;;5031840;28;20216;-89
2023/01/05 04:21:51;;;;;;;8.98;2.33;;;9.90;99.90;;;;;;5035923;28;20186;-90
2023/01/05 04:24:17;;;;;;;10.55;2.05;;;9.90;99.90;;;;;;5034464;28;20171;-89
2023/01/05 04:26:43;;;;;;;14.73;2.08;;;9.90;99.90;;;;;;5034074;28;20237;-90
2023/01/05 04:29:09;;;;;;;13.68;2.53;;;9.90;99.90;;;;;;5034191;28;20301;-89
2023/01/05 04:31:35;;;;;;;7.72;2.05;;;9.90;99.90;;;;;;5034448;28;20198;-90
2023/01/05 04:34:01;;;;;;;10.45;2.13;;;9.80;99.90;;;;;;5034576;28;20178;-90
2023/01/05 04:36:26;;;;;;;14.38;2.25;;;9.90;99.90;;;;;;5034251;28;20701;-90
2023/01/05 04:38:52;;;;;;;15.32;2.63;;;9.80;99.90;;;;;;5034040;28;20166;-90
2023/01/05 04:41:20;;;;;;;8.40;2.42;;;9.90;99.90;;;;;;5034254;28;20178;-89
2023/01/05 04:43:46;;;;;;;12.27;2.35;;;9.90;99.90;;;;;;5034304;28;20237;-90
2023/01/05 04:46:12;;;;;;;10.98;2.30;;;9.80;99.90;;;;;;5034210;28;20572;-89
2023/01/05 04:48:38;;;;;;;12.82;2.13;;;9.90;99.90;;;;;;5034255;28;20185;-89
2023/01/05 04:51:04;;;;;;;10.85;2.00;;;9.90;99.90;;;;;;5034252;28;20563;-90
2023/01/05 04:53:29;;;;;;;9.57;2.00;;;9.90;99.90;;;;;;5034016;28;20272;-90
2023/01/05 04:55:55;;;;;;;10.73;1.98;;;9.90;99.90;;;;;;5034632;28;20173;-90
2023/01/05 04:58:21;;;;;;;14.57;2.30;;;9.90;99.90;;;;;;5034212;28;20190;-89
2023/01/05 05:00:48;;;;;;;12.63;2.00;;;9.90;99.90;;;;;;5033963;28;20170;-90
2023/01/05 05:03:14;;;;;;;7.25;2.28;;;9.80;99.90;;;;;;5034109;28;20174;-91
2023/01/05 05:05:40;;;;;;;9.02;2.25;;;9.80;99.90;;;;;;5033870;28;20174;-89
2023/01/05 05:08:05;;;;;;;7.70;2.20;;;9.80;99.90;;;;;;5033657;28;20198;-90
2023/01/05 05:10:32;;;;;;;12.52;2.53;;;9.90;99.90;;;;;;5033476;28;20194;-90
2023/01/05 05:12:57;;;;;;;10.15;2.63;;;9.80;99.90;;;;;;5034617;28;20147;-89
2023/01/05 05:15:23;;;;;;;11.00;2.75;;;9.80;99.90;;;;;;5033498;28;20179;-89
2023/01/05 05:17:49;;;;;;;10.57;2.20;;;9.90;99.90;;;;;;5033484;28;20281;-89
2023/01/05 05:20:15;;;;;;;14.27;2.58;;;9.90;99.90;;;;;;5033378;28;20653;-89
2023/01/05 05:22:40;;;;;;;15.30;2.63;;;9.90;99.90;;;;;;5033502;28;20179;-91
2023/01/05 05:25:07;;;;;;;11.00;2.53;;;9.80;99.90;;;;;;5033152;28;20270;-90
2023/01/05 05:27:32;;;;;;;11.63;2.35;;;9.80;99.90;;;;;;5033041;28;20230;-90
2023/01/05 05:29:58;;;;;;;10.73;2.15;;;9.90;99.90;;;;;;5032856;28;20206;-89
2023/01/05 05:32:24;;;;;;;13.18;3.33;;;9.80;99.90;;;;;;5033122;28;20205;-89
2023/01/05 05:34:49;;;;;;;13.13;2.53;;;9.90;99.90;;;;;;5034522;28;20162;-90
2023/01/05 05:37:15;;;;;;;12.15;2.70;;;9.80;99.90;;;;;;5032446;28;20256;-89
2023/01/05 05:39:41;;;;;;;11.25;2.25;;;9.90;99.90;;;;;;5033190;28;20186;-89
2023/01/05 05:42:06;;;;;;;8.65;2.00;;;9.90;99.90;;;;;;5032634;28;20178;-89
2023/01/05 05:44:32;;;;;;;11.23;1.98;;;9.90;99.90;;;;;;5032531;28;20627;-89
2023/01/05 05:46:58;;;;;;;11.70;2.30;;;9.80;99.90;;;;;;5032923;28;20212;-90
2023/01/05 05:49:24;;;;;;;10.75;2.20;;;9.80;99.90;;;;;;5034324;28;20162;-89
2023/01/05 05:51:49;;;;;;;13.30;2.38;;;9.80;99.90;;;;;;5033056;28;20221;-89
2023/01/05 05:54:15;;;;;;;7.35;1.70;;;9.70;99.90;;;;;;5034093;28;20510;-89
2023/01/05 05:56:41;;;;;;;12.37;2.10;;;9.70;99.90;;;;;;5032929;28;20332;-89
2023/01/05 05:59:07;;;;;;;11.90;1.80;;;9.70;99.90;;;;;;5033808;28;20573;-90
2023/01/05 06:01:32;;;;;;;13.98;2.17;;;9.70;99.90;;;;;;5032558;28;20174;-91
2023/01/05 06:03:59;;;;;;;15.40;1.73;;;9.80;99.90;;;;;;5033356;28;20253;-89
2023/01/05 06:06:24;;;;;;;11.15;1.98;;;9.70;99.90;;;;;;5032595;28;20201;-91
2023/01/05 06:08:51;;;;;;;13.10;2.10;;;9.70;99.90;;;;;;5033605;28;20163;-89
2023/01/05 06:11:17;;;;;;;12.83;2.63;;;9.70;99.90;;;;;;5051346;28;20208;-90
2023/01/05 06:13:45;;;;;;;5.60;1.37;;;9.70;99.90;;;;;;5052443;28;20529;-90
2023/01/05 06:16:10;;;;;;;8.13;1.88;;;9.70;99.90;;;;;;5051505;28;20229;-89
2023/01/05 06:18:36;;;;;;;10.63;2.20;;;9.80;99.90;;;;;;5051976;28;20223;-89
2023/01/05 06:21:02;;;;;;;8.68;1.55;;;9.80;99.90;;;;;;5051798;28;20166;-90
2023/01/05 06:23:28;;;;;;;10.52;1.73;;;9.80;99.90;;;;;;5051586;28;20177;-90
2023/01/05 06:25:54;;;;;;;12.40;2.15;;;9.70;99.90;;;;;;5050749;28;20170;-89
2023/01/05 06:28:19;;;;;;;11.17;1.97;;;9.80;99.90;;;;;;5051883;28;20182;-90
2023/01/05 06:30:45;;;;;;;10.27;2.17;;;9.70;99.90;;;;;;5051566;28;20209;-90
2023/01/05 06:33:10;;;;;;;11.60;2.53;;;9.70;99.90;;;;;;5051304;28;20253;-90
2023/01/05 06:35:36;;;;;;;12.27;2.15;;;9.70;99.90;;;;;;5034240;28;20654;-89
2023/01/05 06:38:05;;;;;;;13.63;2.25;;;9.60;99.90;;;;;;5031074;28;20194;-89
2023/01/05 06:40:31;;;;;;;8.45;1.73;;;9.60;99.90;;;;;;5030280;28;20171;-90
2023/01/05 06:42:57;;;;;;;8.20;2.15;;;9.50;99.90;;;;;;5030719;28;20634;-90
2023/01/05 06:45:22;;;;;;;13.48;2.97;;;9.50;99.90;;;;;;5031927;28;20527;-89
2023/01/05 06:47:48;;;;;;;12.52;2.45;;;9.50;99.90;;;;;;5040281;28;20205;-89
2023/01/05 06:50:15;;;;;;;8.63;2.17;;;9.50;99.90;;;;;;5053681;28;20197;-90
2023/01/05 06:52:40;;;;;;;8.82;2.20;;;9.40;99.90;;;;;;5052747;28;20652;-92
2023/01/05 06:55:09;;;;;;;10.45;2.65;;;9.40;99.90;;;;;;5052861;28;20264;-91
2023/01/05 06:57:35;;;;;;;12.67;2.60;;;9.40;99.90;;;;;;5053184;28;20190;-90
2023/01/05 07:00:07;;;;;;;9.43;2.40;;;9.30;99.90;;;;;;5052889;28;20304;-91
2023/01/05 07:02:33;;;;;;;9.77;1.80;;;9.40;99.90;;;;;;5052345;28;20260;-92
2023/01/05 07:04:58;;;;;;;12.67;1.80;;;9.30;99.90;;;;;;5052113;28;20812;-91
2023/01/05 07:07:24;;;;;;;11.83;2.37;;;9.30;99.90;;;;;;5051834;28;20197;-91
2023/01/05 07:09:50;;;;;;;6.83;1.87;;;9.20;99.90;;;;;;5052353;28;20320;-91
2023/01/05 07:12:17;;;;;;;10.35;2.33;;;9.20;99.90;;;;;;5052670;28;20166;-91
2023/01/05 07:14:43;;;;;;;9.13;2.38;;;9.30;99.90;;;;;;5052347;28;20638;-91
2023/01/05 07:17:09;;;;;;;6.27;1.53;;;9.30;99.90;;;;;;5050671;28;20189;-90
2023/01/05 07:19:34;;;;;;;12.40;1.80;;;9.30;99.90;;;;;;5051009;28;20491;-90
2023/01/05 07:22:00;;;;;;;8.93;2.08;;;9.30;99.90;;;;;;5051515;28;20174;-91
2023/01/05 07:24:26;;;;;;;10.25;1.80;;;9.30;99.90;;;;;;5051889;28;20178;-90
2023/01/05 07:26:51;;;;;;;8.03;1.70;;;9.50;99.90;;;;;;5052341;28;20225;-90
2023/01/05 07:29:24;;;;;;;7.18;1.42;;;9.50;99.90;;;;;;5053239;28;20205;-90
2023/01/05 07:31:52;;;;;;;7.73;1.40;;;9.50;99.90;;;;;;5044493;28;20201;-90
2023/01/05 07:34:34;;;;;;;7.20;1.43;;;9.50;99.90;;;;;;5033289;28;20201;-90
2023/01/05 07:37:00;;;;;;;8.57;1.73;;;9.40;99.90;;;;;;5034677;28;20198;-90
2023/01/05 07:39:34;;;;;;;6.70;1.40;;;9.30;99.90;;;;;;5033760;28;20167;-91
2023/01/05 07:42:37;;;;;;;5.97;1.57;;;9.20;99.90;;;;;;5033365;28;20202;-91
2023/01/05 07:45:04;;;;;;;7.80;1.60;;;9.20;99.90;;;;;;5033203;28;20615;-91
2023/01/05 07:47:33;;;;;;;9.98;1.70;;;9.10;99.90;;;;;;5049624;28;20252;-91
2023/01/05 07:50:04;;;;;;;6.47;1.90;;;9.20;99.90;;;;;;5033088;28;20201;-91
2023/01/05 07:52:31;;;;;;;6.00;1.30;;;9.20;99.90;;;;;;5032926;28;20178;-91
2023/01/05 07:55:24;;;;;;;8.20;1.67;;;9.20;99.90;;;;;;5034585;28;20213;-91
2023/01/05 07:57:53;;;;;;;5.15;1.48;;;9.20;99.90;;;;;;5036721;28;20205;-90
2023/01/05 08:00:28;;;;;;;11.93;1.83;;;9.40;99.90;;;;;;5036652;28;20174;-91
2023/01/05 08:05:36;;;;;;;11.27;2.10;;;9.20;99.90;;;;;;5037923;28;20178;-91
2023/01/05 08:08:02;;;;;;;12.53;2.30;;;9.30;99.90;;;;;;5037188;28;20221;-92
2023/01/05 08:10:27;;;;;;;8.30;2.10;;;9.20;99.90;;;;;;5036982;28;20202;-90
2023/01/05 08:15:39;;;;;;;8.20;1.83;;;9.10;99.90;;;;;;5028136;28;20533;-90
2023/01/05 08:18:04;;;;;;;12.77;1.90;;;9.20;99.90;;;;;;5016618;28;20199;-90
2023/01/05 08:20:30;;;;;;;11.70;1.87;;;9.20;99.90;;;;;;5015381;28;20167;-90
2023/01/05 08:22:56;;;;;;;13.77;2.27;;;9.20;99.90;;;;;;5015125;28;20194;-90
2023/01/05 08:25:21;;;;;;;11.25;1.80;;;9.20;99.90;;;;;;5016506;28;20191;-92
2023/01/05 08:27:47;;;;;;;9.65;2.17;;;9.20;99.90;;;;;;5014953;28;20239;-90
2023/01/05 08:30:14;;;;;;;10.63;2.37;;;9.20;99.90;;;;;;5016112;28;20694;-90
2023/01/05 08:32:40;;;;;;;6.10;1.70;;;9.20;99.90;;;;;;5015525;28;20183;-92
2023/01/05 08:35:06;;;;;;;9.10;2.30;;;9.30;99.90;;;;;;5015887;28;20235;-91
2023/01/05 08:37:32;;;;;;;9.73;1.92;;;9.30;99.90;;;;;;5014094;28;20212;-90
2023/01/05 08:39:58;;;;;;;7.68;1.55;;;9.40;99.90;;;;;;5014535;28;20168;-91
2023/01/05 08:42:24;;;;;;;9.17;1.60;;;9.40;99.90;;;;;;5014345;28;20171;-90
2023/01/05 08:44:49;;;;;;;7.82;2.25;;;9.40;99.90;;;;;;5014077;28;20175;-89
2023/01/05 08:47:15;;;;;;;4.15;1.40;;;9.40;99.90;;;;;;5013829;28;20202;-89
2023/01/05 08:49:41;;;;;;;6.90;1.50;;;9.40;99.90;;;;;;5014096;28;20710;-90
2023/01/05 08:52:07;;;;;;;6.63;1.97;;;9.50;99.90;;;;;;5013687;28;20167;-90
2023/01/05 08:54:33;;;;;;;7.60;1.93;;;9.40;99.90;;;;;;5014113;28;20168;-91
2023/01/05 08:56:59;;;;;;;6.13;1.70;;;9.40;99.90;;;;;;5013704;28;20655;-91
2023/01/05 08:59:25;;;;;;;7.63;1.90;;;9.30;99.90;;;;;;5013875;28;20172;-92
2023/01/05 09:01:51;;;;;;;5.55;1.45;;;9.30;99.90;;;;;;5013608;28;20174;-91
2023/01/05 09:04:17;;;;;;;4.28;1.20;;;9.20;99.90;;;;;;5018685;28;20205;-90
2023/01/05 09:06:43;;;;;;;5.90;1.73;;;9.30;99.90;;;;;;5032612;28;20253;-91
2023/01/05 09:09:09;;;;;;;5.90;1.23;;;9.30;99.90;;;;;;5033543;28;20244;-92
2023/01/05 09:11:35;;;;;;;2.60;0.80;;;9.20;99.90;;;;;;5034265;28;20201;-91
2023/01/05 09:14:04;;;;;;;3.30;0.90;;;9.10;99.90;;;;;;5033676;28;20258;-91
2023/01/05 09:16:33;;;;;;;4.97;1.03;;;9.10;99.90;;;;;;5033390;28;20203;-92
2023/01/05 09:19:03;;;;;;;4.00;0.77;;;9.10;99.90;;;;;;5033714;28;20253;-90
2023/01/05 10:03:08;;;;;;;2.43;0.80;;;8.50;99.90;;;;;;5640289;23;20187;-80
2023/01/05 10:05:40;;;;;;;2.93;0.83;;;8.50;99.90;;;;;;4846517;29;20252;-84
2023/01/05 10:08:31;;;;;;;2.83;0.97;;;8.50;99.90;;;;;;4858057;29;20212;-84
2023/01/05 10:14:23;;;;;;;1.70;0.90;;;8.50;99.90;;;;;;4862497;29;20240;-84
2023/01/05 10:16:50;;;;;;;4.37;1.10;;;8.40;99.90;;;;;;4845384;29;20200;-84
2023/01/05 10:19:18;;;;;;;3.03;0.80;;;8.40;99.90;;;;;;4860424;29;20191;-86
2023/01/05 10:22:20;;;;;;;7.23;1.20;;;8.30;99.90;;;;;;4845719;29;20185;-84
2023/01/05 10:24:46;;;;;;;5.37;1.20;;;8.30;99.90;;;;;;4817363;29;20192;-85
2023/01/05 10:27:11;;;;;;;3.33;1.20;;;8.30;99.90;;;;;;4860577;29;20616;-84
2023/01/05 10:29:53;;;;;;;2.63;1.00;;;8.30;99.90;;;;;;4860667;29;20201;-85
2023/01/05 10:32:43;;;;;;;2.47;0.90;;;8.20;99.90;;;;;;4862082;29;20187;-83
2023/01/05 10:35:36;;;;;;;5.00;1.10;;;8.20;99.90;;;;;;4861449;29;20193;-84
2023/01/05 10:38:17;;;;;;;6.97;1.30;;;8.10;99.90;;;;;;4862084;29;20181;-86
2023/01/05 10:41:15;;;;;;;4.00;1.33;;;8.10;99.90;;;;;;4845257;29;20180;-85
2023/01/05 10:44:06;;;;;;;5.10;1.57;;;8.10;99.90;;;;;;4824232;29;20193;-85
2023/01/05 10:46:38;;;;;;;3.93;1.43;;;8.10;99.90;;;;;;4861725;29;20256;-84
2023/01/05 10:49:05;;;;;;;5.67;2.10;;;8.10;99.90;;;;;;4844933;29;20177;-86
2023/01/05 10:51:35;;;;;;;4.40;1.40;;;8.10;99.90;;;;;;4861455;29;20252;-86
2023/01/05 10:54:02;;;;;;;3.67;1.40;;;8.10;99.90;;;;;;4862046;29;20617;-85
2023/01/05 10:56:30;;;;;;;3.30;1.50;;;8.10;99.90;;;;;;4861778;29;20181;-86
2023/01/05 10:59:10;;;;;;;5.43;1.33;;;8.00;99.90;;;;;;4861974;29;20172;-85
2023/01/05 11:01:40;;;;;;;4.33;1.50;;;8.00;99.90;;;;;;4861742;29;20168;-85
2023/01/05 11:04:19;;;;;;;4.37;1.20;;;8.00;99.90;;;;;;4844251;29;20228;-85
2023/01/05 11:06:46;;;;;;;6.03;1.37;;;8.00;99.90;;;;;;4861663;29;20258;-85
2023/01/05 11:09:14;;;;;;;3.60;0.93;;;8.10;99.90;;;;;;4845349;29;20173;-85
2023/01/05 11:11:40;;;;;;;3.57;1.53;;;8.00;99.90;;;;;;4861617;29;20291;-86
2023/01/05 11:14:16;;;;;;;5.90;1.23;;;8.10;99.90;;;;;;4844850;29;20184;-84
2023/01/05 11:16:48;;;;;;;3.10;1.00;;;8.10;99.90;;;;;;4861471;29;20211;-84
2023/01/05 11:19:17;;;;;;;4.07;1.03;;;8.00;99.90;;;;;;4860967;29;20178;-85
2023/01/05 11:21:44;;;;;;;5.53;1.03;;;8.10;99.90;;;;;;4861034;29;20244;-83
2023/01/05 11:24:22;;;;;;;4.27;1.27;;;8.10;99.90;;;;;;4861329;29;20602;-84
2023/01/05 11:26:49;;;;;;;3.70;1.03;;;8.00;99.90;;;;;;4844675;29;20188;-84
2023/01/05 11:29:16;;;;;;;3.37;1.17;;;8.10;99.90;;;;;;4863348;29;20176;-84
2023/01/05 11:31:55;;;;;;;2.67;1.20;;;8.10;99.90;;;;;;4864985;29;20235;-85
2023/01/05 11:34:45;;;;;;;4.40;1.17;;;8.10;99.90;;;;;;4864810;29;20275;-85
2023/01/05 11:37:11;;;;;;;5.47;1.10;;;8.10;99.90;;;;;;4865045;29;20204;-85
2023/01/05 11:39:45;;;;;;;7.03;1.50;;;8.10;99.90;;;;;;4865001;29;20207;-85
2023/01/05 11:42:22;;;;;;;1.93;0.90;;;8.20;99.90;;;;;;4865024;29;20184;-85
2023/01/05 11:45:19;;;;;;;9.27;1.23;;;8.30;99.90;;;;;;4848252;29;20240;-84
2023/01/05 11:48:07;;;;;;;7.40;1.10;;;8.40;99.90;;;;;;4849324;29;20200;-85
2023/01/05 11:50:51;;;;;;;2.93;0.90;;;8.40;99.90;;;;;;4864534;29;20208;-82
2023/01/05 11:53:27;;;;;;;4.83;1.43;;;8.40;99.90;;;;;;4864839;29;20165;-84
2023/01/05 11:56:20;;;;;;;1.97;0.60;;;8.30;99.90;;;;;;4862147;29;20227;-85
2023/01/05 11:58:49;;;;;;;3.97;0.80;;;8.30;99.90;;;;;;4862813;29;20197;-84
2023/01/05 12:01:18;;;;;;;4.17;0.80;;;8.30;99.90;;;;;;4864271;29;20680;-84
2023/01/05 12:04:03;;;;;;;2.10;0.80;;;8.30;99.90;;;;;;4863197;29;20231;-85
2023/01/05 12:06:55;;;;;;;4.73;0.90;;;8.30;99.90;;;;;;4847631;29;20268;-83
2023/01/05 12:09:23;;;;;;;3.27;1.10;;;8.30;99.90;;;;;;4863735;29;20169;-84
2023/01/05 12:12:25;;;;;;;4.00;0.70;;;8.40;99.90;;;;;;4864221;29;20632;-84
2023/01/05 12:14:56;;;;;;;7.37;1.20;;;8.40;99.90;;;;;;4864309;29;20176;-83
2023/01/05 12:17:41;;;;;;;3.80;1.10;;;8.40;99.90;;;;;;4847605;29;20185;-84
2023/01/05 12:20:32;;;;;;;4.90;1.17;;;8.50;99.90;;;;;;4847390;29;20172;-82
2023/01/05 12:23:26;;;;;;;2.53;0.73;;;8.50;99.90;;;;;;4864193;29;20612;-83
2023/01/05 12:26:20;;;;;;;3.53;1.00;;;8.50;99.90;;;;;;4847599;29;20520;-82
2023/01/05 12:29:24;;;;;;;3.43;0.90;;;8.50;99.90;;;;;;4864095;29;20180;-84
2023/01/05 12:32:16;;;;;;;2.47;0.77;;;8.50;99.90;;;;;;4863847;29;20204;-83
2023/01/05 12:34:45;;;;;;;2.67;0.80;;;8.70;99.90;;;;;;4863548;29;20207;-83
2023/01/05 12:37:33;;;;;;;2.43;0.60;;;8.80;99.90;;;;;;4847037;29;20211;-83
2023/01/05 12:40:14;;;;;;;5.53;1.13;;;8.90;99.90;;;;;;4862662;29;20200;-82
2023/01/05 12:43:06;;;;;;;2.57;0.90;;;8.90;99.90;;;;;;4863843;29;20176;-83
2023/01/05 12:45:54;;;;;;;4.43;0.93;;;8.90;99.90;;;;;;4863672;29;20169;-82
2023/01/05 12:48:40;;;;;;;3.73;0.77;;;8.90;99.90;;;;;;4847085;29;20565;-81
2023/01/05 12:51:31;;;;;;;4.40;1.07;;;8.80;99.90;;;;;;4863190;29;20212;-82
2023/01/05 12:54:28;;;;;;;6.63;0.83;;;8.80;99.90;;;;;;4863510;29;20684;-83
2023/01/05 12:57:02;;;;;;;1.93;0.60;;;8.70;99.90;;;;;;4863528;29;20181;-83
2023/01/05 12:59:39;;;;;;;2.27;0.67;;;8.70;99.90;;;;;;4863644;29;20168;-82
2023/01/05 13:02:22;;;;;;;1.30;0.60;;;8.80;99.90;;;;;;4863568;29;20600;-82
2023/01/05 13:05:19;;;;;;;2.20;0.50;;;8.80;99.90;;;;;;4862963;29;20247;-82
2023/01/05 13:08:06;;;;;;;4.63;0.60;;;8.80;99.90;;;;;;4863362;29;20173;-82
2023/01/05 13:11:03;;;;;;;5.17;0.80;;;8.80;99.90;;;;;;4863391;29;20210;-81
2023/01/05 13:13:50;;;;;;;4.77;0.87;;;8.80;99.90;;;;;;4863328;29;20271;-82
2023/01/05 13:16:27;;;;;;;2.30;0.80;;;8.80;99.90;;;;;;4863309;29;20278;-83
2023/01/05 13:19:04;;;;;;;6.87;0.80;;;8.70;99.90;;;;;;4863272;29;20180;-83
2023/01/05 13:21:30;;;;;;;1.93;0.70;;;8.60;99.90;;;;;;4862919;29;20619;-82
2023/01/05 13:24:05;;;;;;;2.37;0.90;;;8.60;99.90;;;;;;4862981;29;20181;-82
2023/01/05 13:26:31;;;;;;;4.43;1.20;;;8.60;99.90;;;;;;4863175;29;20567;-83
2023/01/05 13:28:59;;;;;;;5.23;0.80;;;8.70;99.90;;;;;;4846565;29;20188;-84
2023/01/05 13:31:54;;;;;;;5.10;0.70;;;8.70;99.90;;;;;;4862826;29;20220;-83
2023/01/05 13:34:31;;;;;;;2.63;0.80;;;8.70;99.90;;;;;;4810239;29;20207;-82
2023/01/05 13:37:22;;;;;;;3.53;0.80;;;8.60;99.90;;;;;;4844406;29;20235;-81
2023/01/05 13:40:05;;;;;;;6.37;0.87;;;8.60;99.90;;;;;;4827828;29;20578;-81
2023/01/05 13:42:36;;;;;;;2.03;0.60;;;8.50;99.90;;;;;;4844232;29;20166;-82
2023/01/05 13:45:11;;;;;;;2.30;0.67;;;8.50;99.90;;;;;;4844235;29;20196;-81
2023/01/05 13:47:46;;;;;;;2.33;0.97;;;8.50;99.90;;;;;;4844309;29;20252;-82
2023/01/05 13:50:38;;;;;;;3.33;0.70;;;8.40;99.90;;;;;;4843791;29;20566;-81
2023/01/05 13:53:20;;;;;;;2.30;0.60;;;8.30;99.90;;;;;;4843877;29;20181;-80
2023/01/05 13:56:03;;;;;;;3.10;0.70;;;8.30;99.90;;;;;;4843975;29;20205;-82
2023/01/05 13:58:45;;;;;;;5.50;1.10;;;8.20;99.90;;;;;;4844141;29;20609;-82
2023/01/05 14:01:35;;;;;;;2.83;0.57;;;8.20;99.90;;;;;;4827387;29;20188;-83
2023/01/05 14:04:01;;;;;;;8.70;0.60;;;8.30;99.90;;;;;;4846296;29;20250;-83
2023/01/05 14:06:30;;;;;;;1.53;0.60;;;8.20;99.90;;;;;;4862163;29;20213;-83
2023/01/05 14:09:01;;;;;;;1.93;0.70;;;8.20;99.90;;;;;;4859732;29;20535;-83
2023/01/05 14:11:28;;;;;;;2.63;0.57;;;8.20;99.90;;;;;;4851961;29;20282;-82
2023/01/05 14:13:54;;;;;;;1.83;0.90;;;8.10;99.90;;;;;;4852817;29;20523;-82
2023/01/05 14:16:35;;;;;;;4.30;1.03;;;8.10;99.90;;;;;;4862170;29;20183;-82
2023/01/05 14:19:31;;;;;;;3.00;0.80;;;8.10;99.90;;;;;;4845513;29;20193;-83
2023/01/05 14:21:59;;;;;;;1.60;0.73;;;8.00;99.90;;;;;;4845334;29;20492;-83
2023/01/05 14:24:36;;;;;;;5.07;1.80;;;7.90;99.90;;;;;;4861850;29;20245;-82
2023/01/05 14:27:09;;;;;;;6.27;2.50;;;7.90;99.90;;;;;;4862079;29;20683;-83
2023/01/05 14:29:58;;;;;;;9.70;4.23;;;7.80;99.90;;;;;;4845322;29;20185;-82
2023/01/05 14:32:29;;;;;;;9.77;3.27;;;7.80;99.90;;;;;;4840325;29;20201;-82
2023/01/05 14:35:03;;;;;;;7.30;3.03;;;7.80;99.90;;;;;;4861476;29;20180;-83
2023/01/05 14:37:40;;;;;;;7.17;2.67;;;7.80;99.90;;;;;;4861899;29;20604;-82